createdAt,value
2024-01-18T00:00:46.044Z,25.57
2024-01-18T00:01:45.994Z,25.58
2024-01-18T00:02:46.000Z,25.57
2024-01-18T00:03:46.284Z,25.58
2024-01-18T00:04:46.072Z,25.55
2024-01-18T00:05:46.023Z,25.58
2024-01-18T00:06:46.139Z,25.57
2024-01-18T00:07:46.013Z,25.57
2024-01-18T00:08:46.015Z,25.60
2024-01-18T00:09:46.008Z,25.58
2024-01-18T00:10:46.009Z,25.55
2024-01-18T00:11:46.025Z,25.58
2024-01-18T00:12:46.037Z,25.58
2024-01-18T00:13:46.033Z,25.58
2024-01-18T00:14:46.037Z,25.57
2024-01-18T00:15:46.114Z,25.58
2024-01-18T00:16:46.044Z,25.55
2024-01-18T00:17:46.164Z,25.58
2024-01-18T00:18:46.185Z,25.57
2024-01-18T00:19:46.194Z,25.57
2024-01-18T00:20:46.144Z,25.58
2024-01-18T00:21:46.154Z,25.57
2024-01-18T00:22:46.199Z,25.55
2024-01-18T00:23:46.243Z,25.57
2024-01-18T00:24:46.265Z,25.60
2024-01-18T00:25:46.286Z,25.57
2024-01-18T00:26:46.328Z,25.57
2024-01-18T00:27:46.441Z,25.60
2024-01-18T00:28:46.374Z,25.58
2024-01-18T00:29:46.403Z,25.55
2024-01-18T00:30:46.510Z,25.58
2024-01-18T00:31:46.466Z,25.58
2024-01-18T00:32:46.586Z,25.58
2024-01-18T00:33:46.632Z,25.58
2024-01-18T00:34:46.590Z,25.58
2024-01-18T00:35:46.643Z,25.57
2024-01-18T00:36:46.697Z,25.57
2024-01-18T00:37:46.694Z,25.57
2024-01-18T00:38:46.717Z,25.57
2024-01-18T00:39:46.819Z,25.55
2024-01-18T00:40:46.782Z,25.58
2024-01-18T00:41:46.793Z,25.60
2024-01-18T00:42:46.828Z,25.55
2024-01-18T00:43:46.858Z,25.57
2024-01-18T00:44:47.417Z,25.57
2024-01-18T00:45:46.960Z,25.57
2024-01-18T00:46:46.963Z,25.57
2024-01-18T00:47:47.051Z,25.58
2024-01-18T00:48:47.150Z,25.57
2024-01-18T00:49:47.141Z,25.58
2024-01-18T00:50:47.119Z,25.57
2024-01-18T00:51:47.216Z,25.57
2024-01-18T00:52:47.162Z,25.55
2024-01-18T00:53:47.206Z,25.57
2024-01-18T00:54:47.225Z,25.57
2024-01-18T00:55:47.277Z,25.57
2024-01-18T00:56:47.296Z,25.57
2024-01-18T00:57:47.330Z,25.57
2024-01-18T00:58:47.419Z,25.57
2024-01-18T00:59:47.409Z,25.60
2024-01-18T01:00:47.514Z,25.58
2024-01-18T01:01:47.470Z,25.58
2024-01-18T01:02:47.507Z,25.58
2024-01-18T01:03:47.639Z,25.58
2024-01-18T01:04:47.652Z,25.60
2024-01-18T01:05:47.619Z,25.57
2024-01-18T01:06:47.649Z,25.57
2024-01-18T01:07:47.757Z,25.58
2024-01-18T01:08:47.728Z,25.58
2024-01-18T01:09:47.774Z,25.57
2024-01-18T01:10:47.794Z,25.57
2024-01-18T01:11:47.829Z,25.58
2024-01-18T01:12:47.860Z,25.58
2024-01-18T01:13:47.907Z,25.58
2024-01-18T01:14:47.979Z,25.57
2024-01-18T01:15:48.138Z,25.57
2024-01-18T01:16:48.008Z,25.58
2024-01-18T01:17:48.116Z,25.55
2024-01-18T01:18:48.111Z,25.57
2024-01-18T01:19:48.149Z,25.58
2024-01-18T01:20:48.141Z,25.57
2024-01-18T01:21:48.172Z,25.57
2024-01-18T01:22:48.230Z,25.58
2024-01-18T01:23:48.245Z,25.57
2024-01-18T01:24:48.291Z,25.57
2024-01-18T01:25:48.313Z,25.55
2024-01-18T01:26:48.342Z,25.57
2024-01-18T01:27:48.459Z,25.58
2024-01-18T01:28:48.381Z,25.55
2024-01-18T01:29:48.433Z,25.58
2024-01-18T01:30:48.510Z,25.58
2024-01-18T01:31:48.493Z,25.57
2024-01-18T01:32:48.529Z,25.57
2024-01-18T01:33:48.664Z,25.57
2024-01-18T01:34:48.635Z,25.57
2024-01-18T01:35:48.631Z,25.58
2024-01-18T01:36:48.640Z,25.58
2024-01-18T01:37:48.675Z,25.58
2024-01-18T01:38:48.727Z,25.58
2024-01-18T01:39:48.856Z,25.57
2024-01-18T01:40:48.808Z,25.55
2024-01-18T01:41:48.826Z,25.58
2024-01-18T01:42:48.910Z,25.57
2024-01-18T01:43:48.900Z,25.60
2024-01-18T01:44:48.911Z,25.58
2024-01-18T01:45:48.957Z,25.57
2024-01-18T01:46:49.009Z,25.55
2024-01-18T01:47:49.044Z,25.57
2024-01-18T01:48:49.108Z,25.58
2024-01-18T01:49:49.169Z,25.58
2024-01-18T01:50:49.136Z,25.58
2024-01-18T01:51:49.314Z,25.58
2024-01-18T01:52:49.206Z,25.57
2024-01-18T01:53:49.254Z,25.60
2024-01-18T01:54:49.278Z,25.58
2024-01-18T01:55:49.306Z,25.55
2024-01-18T01:56:49.357Z,25.57
2024-01-18T01:57:49.403Z,25.58
2024-01-18T01:58:49.408Z,25.58
2024-01-18T01:59:49.460Z,25.57
2024-01-18T02:00:49.838Z,25.57
2024-01-18T02:01:49.518Z,25.58
2024-01-18T02:02:49.546Z,25.57
2024-01-18T02:03:49.791Z,25.55
2024-01-18T02:04:49.608Z,25.57
2024-01-18T02:05:49.706Z,25.57
2024-01-18T02:06:49.818Z,25.58
2024-01-18T02:07:49.739Z,25.58
2024-01-18T02:08:49.744Z,25.55
2024-01-18T02:09:49.847Z,25.60
2024-01-18T02:10:49.817Z,25.60
2024-01-18T02:11:49.853Z,25.58
2024-01-18T02:12:49.891Z,25.60
2024-01-18T02:13:49.937Z,25.58
2024-01-18T02:14:49.972Z,25.60
2024-01-18T02:15:50.132Z,25.57
2024-01-18T02:16:50.036Z,25.58
2024-01-18T02:17:50.096Z,25.58
2024-01-18T02:18:50.207Z,25.55
2024-01-18T02:19:50.241Z,25.58
2024-01-18T02:20:50.192Z,25.58
2024-01-18T02:21:50.221Z,25.58
2024-01-18T02:22:50.292Z,25.58
2024-01-18T02:23:50.290Z,25.58
2024-01-18T02:24:50.321Z,25.60
2024-01-18T02:25:50.359Z,25.60
2024-01-18T02:26:50.389Z,25.58
2024-01-18T02:27:50.529Z,25.55
2024-01-18T02:28:50.462Z,25.61
2024-01-18T02:29:50.500Z,25.60
2024-01-18T02:30:50.568Z,25.58
2024-01-18T02:31:50.557Z,25.57
2024-01-18T02:32:50.658Z,25.58
2024-01-18T02:33:50.708Z,25.58
2024-01-18T02:34:50.654Z,25.57
2024-01-18T02:35:50.671Z,25.58
2024-01-18T02:36:50.696Z,25.58
2024-01-18T02:37:50.737Z,25.58
2024-01-18T02:38:50.782Z,25.57
2024-01-18T02:39:50.880Z,25.60
2024-01-18T02:40:50.824Z,25.57
2024-01-18T02:41:50.861Z,25.58
2024-01-18T02:42:50.883Z,25.57
2024-01-18T02:43:50.939Z,25.57
2024-01-18T02:44:50.946Z,25.57
2024-01-18T02:45:50.985Z,25.58
2024-01-18T02:46:51.013Z,25.58
2024-01-18T02:47:51.078Z,25.60
2024-01-18T02:48:51.198Z,25.55
2024-01-18T02:49:51.155Z,25.57
2024-01-18T02:50:51.140Z,25.57
2024-01-18T02:51:51.285Z,25.57
2024-01-18T02:52:51.223Z,25.57
2024-01-18T02:53:51.249Z,25.60
2024-01-18T02:54:51.285Z,25.58
2024-01-18T02:55:51.409Z,25.58
2024-01-18T02:56:51.357Z,25.61
2024-01-18T02:57:51.385Z,25.58
2024-01-18T02:58:51.430Z,25.57
2024-01-18T02:59:51.462Z,25.57
2024-01-18T03:00:51.581Z,25.58
2024-01-18T03:01:51.516Z,25.57
2024-01-18T03:02:51.628Z,25.57
2024-01-18T03:03:51.736Z,25.57
2024-01-18T03:04:51.721Z,25.57
2024-01-18T03:05:51.671Z,25.58
2024-01-18T03:06:51.696Z,25.57
2024-01-18T03:07:51.757Z,25.60
2024-01-18T03:08:51.772Z,25.58
2024-01-18T03:09:51.769Z,25.58
2024-01-18T03:10:51.801Z,25.58
2024-01-18T03:11:51.828Z,25.57
2024-01-18T03:12:51.872Z,25.57
2024-01-18T03:13:52.012Z,25.57
2024-01-18T03:14:51.908Z,25.57
2024-01-18T03:15:51.954Z,25.60
2024-01-18T03:16:52.041Z,25.58
2024-01-18T03:17:52.070Z,25.58
2024-01-18T03:18:52.251Z,25.60
2024-01-18T03:19:52.132Z,25.58
2024-01-18T03:20:52.075Z,25.60
2024-01-18T03:21:52.097Z,25.60
2024-01-18T03:22:52.198Z,25.58
2024-01-18T03:23:52.174Z,25.60
2024-01-18T03:24:52.970Z,25.60
2024-01-18T03:25:52.319Z,25.60
2024-01-18T03:26:52.251Z,25.58
2024-01-18T03:27:52.291Z,25.60
2024-01-18T03:28:52.319Z,25.58
2024-01-18T03:29:52.353Z,25.60
2024-01-18T03:30:52.469Z,25.58
2024-01-18T03:31:52.424Z,25.60
2024-01-18T03:32:52.478Z,25.58
2024-01-18T03:33:52.561Z,25.60
2024-01-18T03:34:52.521Z,25.58
2024-01-18T03:35:52.564Z,25.58
2024-01-18T03:36:52.574Z,25.58
2024-01-18T03:37:52.731Z,25.58
2024-01-18T03:38:52.652Z,25.58
2024-01-18T03:39:52.655Z,25.57
2024-01-18T03:40:52.697Z,25.58
2024-01-18T03:41:52.754Z,25.58
2024-01-18T03:42:52.768Z,25.58
2024-01-18T03:43:52.809Z,25.61
2024-01-18T03:44:52.840Z,25.58
2024-01-18T03:45:52.868Z,25.60
2024-01-18T03:46:52.906Z,25.60
2024-01-18T03:47:52.934Z,25.58
2024-01-18T03:48:53.071Z,25.58
2024-01-18T03:49:53.144Z,25.58
2024-01-18T03:50:53.030Z,25.60
2024-01-18T03:51:53.081Z,25.58
2024-01-18T03:52:53.077Z,25.60
2024-01-18T03:53:53.116Z,25.60
2024-01-18T03:54:53.130Z,25.60
2024-01-18T03:55:53.176Z,25.60
2024-01-18T03:56:53.175Z,25.60
2024-01-18T03:57:53.201Z,25.60
2024-01-18T03:58:53.244Z,25.62
2024-01-18T03:59:53.280Z,25.58
2024-01-18T04:00:53.353Z,25.64
2024-01-18T04:01:53.370Z,25.60
2024-01-18T04:02:53.372Z,25.61
2024-01-18T04:03:53.492Z,25.64
2024-01-18T04:04:53.425Z,25.61
2024-01-18T04:05:53.487Z,25.60
2024-01-18T04:06:53.513Z,25.61
2024-01-18T04:07:53.490Z,25.61
2024-01-18T04:08:53.519Z,25.60
2024-01-18T04:09:53.550Z,25.60
2024-01-18T04:10:53.591Z,25.61
2024-01-18T04:11:53.624Z,25.58
2024-01-18T04:12:53.635Z,25.60
2024-01-18T04:13:53.701Z,25.58
2024-01-18T04:14:53.743Z,25.58
2024-01-18T04:15:53.776Z,25.58
2024-01-18T04:16:53.772Z,25.61
2024-01-18T04:17:53.849Z,25.58
2024-01-18T04:18:53.873Z,25.61
2024-01-18T04:19:53.922Z,25.61
2024-01-18T04:20:54.540Z,25.61
2024-01-18T04:21:53.969Z,25.61
2024-01-18T04:22:53.929Z,25.61
2024-01-18T04:23:53.948Z,25.61
2024-01-18T04:24:53.962Z,25.61
2024-01-18T04:25:53.985Z,25.58
2024-01-18T04:26:54.014Z,25.61
2024-01-18T04:27:54.183Z,25.61
2024-01-18T04:28:54.053Z,25.60
2024-01-18T04:29:54.060Z,25.60
2024-01-18T04:30:54.081Z,25.61
2024-01-18T04:31:54.109Z,25.61
2024-01-18T04:33:01.575Z,25.58
2024-01-18T04:34:01.410Z,25.61
2024-01-18T04:35:01.485Z,25.60
2024-01-18T04:36:01.486Z,25.61
2024-01-18T04:37:01.382Z,25.62
2024-01-18T04:38:01.399Z,25.61
2024-01-18T04:39:01.461Z,25.61
2024-01-18T04:40:01.421Z,25.58
2024-01-18T04:41:01.416Z,25.60
2024-01-18T04:42:01.494Z,25.61
2024-01-18T04:43:01.454Z,25.61
2024-01-18T04:44:01.509Z,25.61
2024-01-18T04:45:01.524Z,25.60
2024-01-18T04:46:01.546Z,25.61
2024-01-18T04:47:01.515Z,25.60
2024-01-18T04:48:01.652Z,25.61
2024-01-18T04:49:01.650Z,25.61
2024-01-18T04:50:01.587Z,25.60
2024-01-18T04:51:01.575Z,25.57
2024-01-18T04:52:01.563Z,25.58
2024-01-18T04:53:01.664Z,25.61
2024-01-18T04:54:01.615Z,25.61
2024-01-18T04:55:01.641Z,25.58
2024-01-18T04:56:01.618Z,25.60
2024-01-18T04:57:01.624Z,25.58
2024-01-18T04:58:01.580Z,25.58
2024-01-18T04:59:01.631Z,25.60
2024-01-18T05:00:01.831Z,25.58
2024-01-18T05:01:01.708Z,25.61
2024-01-18T05:02:01.655Z,25.58
2024-01-18T05:03:01.700Z,25.60
2024-01-18T05:04:01.717Z,25.60
2024-01-18T05:05:01.911Z,25.58
2024-01-18T05:06:01.906Z,25.62
2024-01-18T05:07:01.797Z,25.58
2024-01-18T05:08:01.676Z,25.61
2024-01-18T05:09:01.729Z,25.58
2024-01-18T05:10:01.787Z,25.58
2024-01-18T05:11:01.694Z,25.58
2024-01-18T05:12:01.739Z,25.60
2024-01-18T05:13:01.721Z,25.61
2024-01-18T05:14:01.752Z,25.61
2024-01-18T05:15:01.799Z,25.61
2024-01-18T05:16:01.792Z,25.60
2024-01-18T05:17:01.753Z,25.61
2024-01-18T05:18:02.311Z,25.58
2024-01-18T05:19:01.889Z,25.60
2024-01-18T05:20:01.850Z,25.60
2024-01-18T05:21:01.854Z,25.61
2024-01-18T05:22:01.787Z,25.61
2024-01-18T05:23:01.810Z,25.61
2024-01-18T05:24:01.866Z,25.61
2024-01-18T05:25:01.844Z,25.60
2024-01-18T05:26:01.883Z,25.60
2024-01-18T05:27:01.881Z,25.61
2024-01-18T05:28:01.838Z,25.61
2024-01-18T05:29:01.870Z,25.61
2024-01-18T05:30:02.115Z,25.64
2024-01-18T05:31:01.874Z,25.60
2024-01-18T05:32:01.873Z,25.58
2024-01-18T05:33:02.005Z,25.57
2024-01-18T05:34:02.023Z,25.58
2024-01-18T05:35:02.018Z,25.60
2024-01-18T05:36:02.030Z,25.60
2024-01-18T05:37:01.935Z,25.58
2024-01-18T05:38:01.960Z,25.61
2024-01-18T05:39:02.018Z,25.61
2024-01-18T05:40:01.970Z,25.61
2024-01-18T05:41:02.003Z,25.60
2024-01-18T05:42:01.999Z,25.62
2024-01-18T05:43:02.009Z,25.58
2024-01-18T05:44:02.025Z,25.61
2024-01-18T05:45:02.123Z,25.60
2024-01-18T05:46:02.038Z,25.57
2024-01-18T05:47:02.039Z,25.61
2024-01-18T05:48:02.171Z,25.58
2024-01-18T05:49:02.248Z,25.58
2024-01-18T05:50:02.156Z,25.58
2024-01-18T05:51:02.124Z,25.58
2024-01-18T05:52:02.249Z,25.60
2024-01-18T05:53:02.153Z,25.61
2024-01-18T05:54:02.177Z,25.61
2024-01-18T05:55:02.137Z,25.58
2024-01-18T05:56:02.380Z,25.58
2024-01-18T05:57:02.245Z,25.61
2024-01-18T05:58:02.211Z,25.58
2024-01-18T05:59:02.336Z,25.57
2024-01-18T06:00:02.311Z,25.61
2024-01-18T06:01:02.510Z,25.60
2024-01-18T06:02:02.394Z,25.58
2024-01-18T06:03:02.441Z,25.58
2024-01-18T06:04:02.620Z,25.58
2024-01-18T06:05:02.530Z,25.55
2024-01-18T06:06:02.751Z,25.58
2024-01-18T06:07:02.576Z,25.60
2024-01-18T06:08:02.456Z,25.58
2024-01-18T06:09:02.559Z,25.58
2024-01-18T06:10:02.508Z,25.58
2024-01-18T06:11:02.508Z,25.60
2024-01-18T06:12:02.617Z,25.61
2024-01-18T06:13:02.548Z,25.61
2024-01-18T06:14:02.596Z,25.61
2024-01-18T06:15:02.648Z,25.60
2024-01-18T06:16:02.719Z,25.61
2024-01-18T06:17:02.637Z,25.58
2024-01-18T06:18:02.746Z,25.58
2024-01-18T06:19:02.806Z,25.60
2024-01-18T06:20:02.859Z,25.58
2024-01-18T06:21:02.776Z,25.60
2024-01-18T06:22:02.753Z,25.61
2024-01-18T06:23:02.784Z,25.58
2024-01-18T06:24:02.834Z,25.58
2024-01-18T06:25:02.806Z,25.61
2024-01-18T06:26:02.816Z,25.64
2024-01-18T06:27:02.915Z,25.62
2024-01-18T06:28:02.870Z,25.64
2024-01-18T06:29:03.010Z,25.65
2024-01-18T06:30:03.007Z,25.68
2024-01-18T06:31:02.887Z,25.69
2024-01-18T06:32:05.504Z,25.72
2024-01-18T06:33:02.972Z,25.75
2024-01-18T06:34:03.393Z,25.75
2024-01-18T06:35:02.949Z,25.79
2024-01-18T06:36:02.922Z,25.83
2024-01-18T06:37:02.899Z,25.83
2024-01-18T06:38:02.886Z,25.89
2024-01-18T06:39:03.069Z,25.86
2024-01-18T06:40:02.910Z,25.92
2024-01-18T06:41:02.933Z,25.92
2024-01-18T06:42:02.936Z,25.93
2024-01-18T06:43:02.931Z,25.97
2024-01-18T06:44:03.029Z,26.02
2024-01-18T06:45:02.995Z,26.07
2024-01-18T06:46:02.929Z,26.13
2024-01-18T06:47:03.022Z,26.16
2024-01-18T06:48:03.019Z,26.17
2024-01-18T06:49:03.055Z,26.22
2024-01-18T06:50:03.014Z,26.24
2024-01-18T06:51:02.995Z,26.30
2024-01-18T06:52:02.952Z,26.30
2024-01-18T06:53:02.958Z,26.33
2024-01-18T06:54:03.034Z,26.37
2024-01-18T06:55:03.130Z,26.37
2024-01-18T06:56:03.084Z,26.36
2024-01-18T06:57:03.174Z,26.31
2024-01-18T06:58:03.301Z,26.13
2024-01-18T06:59:03.224Z,26.00
2024-01-18T07:00:03.307Z,25.89
2024-01-18T07:01:03.489Z,25.79
2024-01-18T07:02:03.322Z,25.73
2024-01-18T07:03:03.443Z,25.69
2024-01-18T07:04:03.512Z,25.68
2024-01-18T07:05:03.641Z,25.65
2024-01-18T07:06:03.619Z,25.65
2024-01-18T07:07:03.611Z,25.64
2024-01-18T07:08:03.554Z,25.64
2024-01-18T07:09:03.681Z,25.65
2024-01-18T07:10:04.009Z,25.68
2024-01-18T07:11:03.676Z,25.66
2024-01-18T07:12:03.736Z,25.65
2024-01-18T07:13:03.751Z,25.66
2024-01-18T07:14:03.807Z,25.64
2024-01-18T07:15:03.882Z,25.69
2024-01-18T07:16:03.825Z,25.72
2024-01-18T07:17:03.851Z,25.73
2024-01-18T07:18:03.985Z,25.78
2024-01-18T07:19:04.048Z,25.83
2024-01-18T07:20:03.914Z,25.91
2024-01-18T07:21:03.927Z,25.92
2024-01-18T07:22:03.982Z,25.97
2024-01-18T07:23:04.022Z,26.02
2024-01-18T07:24:04.144Z,26.07
2024-01-18T07:25:04.180Z,26.12
2024-01-18T07:26:04.263Z,26.17
2024-01-18T07:27:04.328Z,26.19
2024-01-18T07:28:04.396Z,26.22
2024-01-18T07:29:04.544Z,26.27
2024-01-18T07:30:04.660Z,26.31
2024-01-18T07:31:04.566Z,26.31
2024-01-18T07:32:04.616Z,26.36
2024-01-18T07:33:04.755Z,26.39
2024-01-18T07:34:04.838Z,26.41
2024-01-18T07:35:04.786Z,26.43
2024-01-18T07:36:04.888Z,26.48
2024-01-18T07:37:06.330Z,26.51
2024-01-18T07:38:04.886Z,26.54
2024-01-18T07:39:04.924Z,26.60
2024-01-18T07:40:04.879Z,26.62
2024-01-18T07:41:04.887Z,26.64
2024-01-18T07:42:04.900Z,26.70
2024-01-18T07:43:04.869Z,26.71
2024-01-18T07:44:04.907Z,26.75
2024-01-18T07:45:04.895Z,26.75
2024-01-18T07:46:04.843Z,26.77
2024-01-18T07:47:04.830Z,26.78
2024-01-18T07:48:04.904Z,26.82
2024-01-18T07:49:04.943Z,26.82
2024-01-18T07:50:14.150Z,26.84
2024-01-18T07:51:05.905Z,26.88
2024-01-18T07:52:04.800Z,26.88
2024-01-18T07:53:04.803Z,26.91
2024-01-18T07:54:04.855Z,26.92
2024-01-18T07:55:04.785Z,26.94
2024-01-18T07:56:04.772Z,26.97
2024-01-18T07:57:04.813Z,26.95
2024-01-18T07:58:04.751Z,26.97
2024-01-18T07:59:04.785Z,26.98
2024-01-18T08:00:05.068Z,26.97
2024-01-18T08:01:04.827Z,26.95
2024-01-18T08:02:04.727Z,26.98
2024-01-18T08:03:04.745Z,26.99
2024-01-18T08:04:04.822Z,26.99
2024-01-18T08:05:04.704Z,27.01
2024-01-18T08:06:04.862Z,27.01
2024-01-18T08:07:04.802Z,27.03
2024-01-18T08:08:04.758Z,27.03
2024-01-18T08:09:04.902Z,27.01
2024-01-18T08:10:04.826Z,27.03
2024-01-18T08:11:04.850Z,27.03
2024-01-18T08:12:04.917Z,27.05
2024-01-18T08:13:04.891Z,27.05
2024-01-18T08:14:04.927Z,27.08
2024-01-18T08:15:04.995Z,27.09
2024-01-18T08:16:04.956Z,27.09
2024-01-18T08:17:04.998Z,27.08
2024-01-18T08:18:05.090Z,27.02
2024-01-18T08:19:05.635Z,26.90
2024-01-18T08:20:05.160Z,26.73
2024-01-18T08:21:09.395Z,26.55
2024-01-18T08:22:06.198Z,26.37
2024-01-18T08:23:05.181Z,26.19
2024-01-18T08:24:05.236Z,26.03
2024-01-18T08:25:05.209Z,25.79
2024-01-18T08:26:05.251Z,25.53
2024-01-18T08:27:05.318Z,25.37
2024-01-18T08:28:05.273Z,25.27
2024-01-18T08:29:05.577Z,25.24
2024-01-18T08:30:05.585Z,25.23
2024-01-18T08:31:05.316Z,25.30
2024-01-18T08:32:05.322Z,25.35
2024-01-18T08:33:05.427Z,25.44
2024-01-18T08:34:05.488Z,25.52
2024-01-18T08:35:05.450Z,25.62
2024-01-18T08:36:05.512Z,25.69
2024-01-18T08:37:05.621Z,25.76
2024-01-18T08:38:05.512Z,25.83
2024-01-18T08:39:05.649Z,25.92
2024-01-18T08:40:05.664Z,26.02
2024-01-18T08:41:05.723Z,26.09
2024-01-18T08:42:05.812Z,26.15
2024-01-18T08:43:05.860Z,26.19
2024-01-18T08:44:05.939Z,26.27
2024-01-18T08:45:06.081Z,26.29
2024-01-18T08:46:06.048Z,26.30
2024-01-18T08:47:06.096Z,26.36
2024-01-18T08:48:06.197Z,26.39
2024-01-18T08:49:06.343Z,26.43
2024-01-18T08:50:06.375Z,26.47
2024-01-18T08:51:06.431Z,26.48
2024-01-18T08:52:06.577Z,26.53
2024-01-18T08:53:06.408Z,26.55
2024-01-18T08:54:06.493Z,26.60
2024-01-18T08:55:06.508Z,26.61
2024-01-18T08:56:06.530Z,26.64
2024-01-18T08:57:06.613Z,26.68
2024-01-18T08:58:06.658Z,26.70
2024-01-18T08:59:06.705Z,26.71
2024-01-18T09:00:06.759Z,26.74
2024-01-18T09:01:06.916Z,26.74
2024-01-18T09:02:14.204Z,26.78
2024-01-18T09:03:07.917Z,26.81
2024-01-18T09:04:06.914Z,26.82
2024-01-18T09:05:07.023Z,26.84
2024-01-18T09:06:06.898Z,26.81
2024-01-18T09:07:06.865Z,26.82
2024-01-18T09:08:07.320Z,26.84
2024-01-18T09:09:06.894Z,26.87
2024-01-18T09:10:06.854Z,26.87
2024-01-18T09:11:06.854Z,26.88
2024-01-18T09:12:06.868Z,26.87
2024-01-18T09:13:06.845Z,26.91
2024-01-18T09:14:06.868Z,26.90
2024-01-18T09:15:06.904Z,26.92
2024-01-18T09:16:06.876Z,26.94
2024-01-18T09:17:06.868Z,26.98
2024-01-18T09:18:06.991Z,26.95
2024-01-18T09:19:14.323Z,26.97
2024-01-18T09:20:08.033Z,26.97
2024-01-18T09:21:06.925Z,26.98
2024-01-18T09:22:06.931Z,27.01
2024-01-18T09:23:12.960Z,26.91
2024-01-18T09:24:07.953Z,26.34
2024-01-18T09:25:06.962Z,25.66
2024-01-18T09:26:06.939Z,25.10
2024-01-18T09:27:07.014Z,24.58
2024-01-18T09:28:06.992Z,24.16
2024-01-18T09:29:07.057Z,23.60
2024-01-18T09:30:07.103Z,22.79
2024-01-18T09:31:07.114Z,22.24
2024-01-18T09:32:07.144Z,21.70
2024-01-18T09:33:07.277Z,21.31
2024-01-18T09:34:07.564Z,20.98
2024-01-18T09:35:07.444Z,20.99
2024-01-18T09:36:07.485Z,20.91
2024-01-18T09:37:07.619Z,21.05
2024-01-18T09:38:07.593Z,21.22
2024-01-18T09:39:08.117Z,21.42
2024-01-18T09:40:07.909Z,21.67
2024-01-18T09:41:07.890Z,21.93
2024-01-18T09:42:08.179Z,22.20
2024-01-18T09:43:08.053Z,22.40
2024-01-18T09:44:08.110Z,22.65
2024-01-18T09:45:08.194Z,22.86
2024-01-18T09:46:08.272Z,23.09
2024-01-18T09:47:08.346Z,23.29
2024-01-18T09:48:08.516Z,23.49
2024-01-18T09:49:08.509Z,23.67
2024-01-18T09:50:08.616Z,23.81
2024-01-18T09:51:08.640Z,23.95
2024-01-18T09:52:08.649Z,24.08
2024-01-18T09:53:08.709Z,24.22
2024-01-18T09:54:08.770Z,24.33
2024-01-18T09:55:08.773Z,24.45
2024-01-18T09:56:08.765Z,24.55
2024-01-18T09:57:08.854Z,24.69
2024-01-18T09:58:08.916Z,24.76
2024-01-18T09:59:08.999Z,24.84
2024-01-18T10:00:09.921Z,24.93
2024-01-18T10:01:09.254Z,25.00
2024-01-18T10:02:09.207Z,25.04
2024-01-18T10:03:09.349Z,25.10
2024-01-18T10:04:09.362Z,25.18
2024-01-18T10:05:09.410Z,25.23
2024-01-18T10:06:09.608Z,25.25
2024-01-18T10:07:09.842Z,25.30
2024-01-18T10:08:09.767Z,25.34
2024-01-18T10:09:09.633Z,25.35
2024-01-18T10:10:09.663Z,25.42
2024-01-18T10:11:09.707Z,25.42
2024-01-18T10:12:11.105Z,25.45
2024-01-18T10:13:09.758Z,25.49
2024-01-18T10:14:10.081Z,25.52
2024-01-18T10:15:09.862Z,25.55
2024-01-18T10:16:09.860Z,25.53
2024-01-18T10:17:09.801Z,25.57
2024-01-18T10:18:09.920Z,25.58
2024-01-18T10:19:09.866Z,25.58
2024-01-18T10:20:09.850Z,25.61
2024-01-18T10:21:09.852Z,25.61
2024-01-18T10:22:09.832Z,25.62
2024-01-18T10:23:09.824Z,25.62
2024-01-18T10:24:09.878Z,25.65
2024-01-18T10:25:10.089Z,25.65
2024-01-18T10:26:09.873Z,25.65
2024-01-18T10:27:09.909Z,25.65
2024-01-18T10:28:09.886Z,25.69
2024-01-18T10:29:09.893Z,25.72
2024-01-18T10:30:10.125Z,25.79
2024-01-18T10:31:09.885Z,25.86
2024-01-18T10:32:09.888Z,25.93
2024-01-18T10:33:10.086Z,25.99
2024-01-18T10:34:10.070Z,26.07
2024-01-18T10:35:10.115Z,26.12
2024-01-18T10:36:10.093Z,26.16
2024-01-18T10:37:09.939Z,26.22
2024-01-18T10:38:09.931Z,26.27
2024-01-18T10:39:09.939Z,26.29
2024-01-18T10:40:09.926Z,26.33
2024-01-18T10:41:09.962Z,26.36
2024-01-18T10:42:09.977Z,26.39
2024-01-18T10:43:09.993Z,26.40
2024-01-18T10:44:11.630Z,26.46
2024-01-18T10:45:09.985Z,26.50
2024-01-18T10:46:09.993Z,26.51
2024-01-18T10:47:10.002Z,26.53
2024-01-18T10:48:10.213Z,26.54
2024-01-18T10:49:09.983Z,26.57
2024-01-18T10:50:10.006Z,26.58
2024-01-18T10:51:10.056Z,26.61
2024-01-18T10:52:09.944Z,26.64
2024-01-18T10:53:09.938Z,26.68
2024-01-18T10:54:18.066Z,26.71
2024-01-18T10:55:11.048Z,26.74
2024-01-18T10:56:10.027Z,26.75
2024-01-18T10:57:09.944Z,26.77
2024-01-18T10:58:09.953Z,26.77
2024-01-18T10:59:09.931Z,26.77
2024-01-18T11:00:10.021Z,26.77
2024-01-18T11:01:09.993Z,26.80
2024-01-18T11:02:09.935Z,26.80
2024-01-18T11:03:10.028Z,26.82
2024-01-18T11:04:09.915Z,26.82
2024-01-18T11:05:10.015Z,26.82
2024-01-18T11:06:10.052Z,26.78
2024-01-18T11:07:10.040Z,26.81
2024-01-18T11:08:09.915Z,26.84
2024-01-18T11:09:09.990Z,26.85
2024-01-18T11:10:09.981Z,26.88
2024-01-18T11:11:09.990Z,26.87
2024-01-18T11:12:10.094Z,26.91
2024-01-18T11:13:10.056Z,26.91
2024-01-18T11:14:10.129Z,26.94
2024-01-18T11:15:10.625Z,26.94
2024-01-18T11:16:10.181Z,26.95
2024-01-18T11:17:10.175Z,26.97
2024-01-18T11:18:10.329Z,26.97
2024-01-18T11:19:10.381Z,26.98
2024-01-18T11:20:10.294Z,26.97
2024-01-18T11:21:10.884Z,26.95
2024-01-18T11:22:10.330Z,26.92
2024-01-18T11:23:10.337Z,26.92
2024-01-18T11:24:10.409Z,26.88
2024-01-18T11:25:10.636Z,26.92
2024-01-18T11:26:10.410Z,26.95
2024-01-18T11:27:10.449Z,26.95
2024-01-18T11:28:10.455Z,26.97
2024-01-18T11:29:10.484Z,27.01
2024-01-18T11:30:10.579Z,27.03
2024-01-18T11:31:10.617Z,27.05
2024-01-18T11:32:10.515Z,27.06
2024-01-18T11:33:10.581Z,27.05
2024-01-18T11:34:10.594Z,27.05
2024-01-18T11:35:10.645Z,27.01
2024-01-18T11:36:10.729Z,26.99
2024-01-18T11:37:10.684Z,26.99
2024-01-18T11:38:10.683Z,26.98
2024-01-18T11:39:10.749Z,27.02
2024-01-18T11:40:10.789Z,26.99
2024-01-18T11:41:10.808Z,26.97
2024-01-18T11:42:10.833Z,26.97
2024-01-18T11:43:10.831Z,26.98
2024-01-18T11:44:10.873Z,26.94
2024-01-18T11:45:11.602Z,26.92
2024-01-18T11:46:11.441Z,26.91
2024-01-18T11:47:10.952Z,26.92
2024-01-18T11:48:11.037Z,26.88
2024-01-18T11:49:11.139Z,26.87
2024-01-18T11:50:11.094Z,26.87
2024-01-18T11:51:11.130Z,26.85
2024-01-18T11:52:11.130Z,26.82
2024-01-18T11:53:11.164Z,26.82
2024-01-18T11:54:11.257Z,26.81
2024-01-18T11:55:11.241Z,26.81
2024-01-18T11:56:11.285Z,26.80
2024-01-18T11:57:11.364Z,26.78
2024-01-18T11:58:11.367Z,26.77
2024-01-18T11:59:11.420Z,26.74
2024-01-18T12:00:11.462Z,26.77
2024-01-18T12:01:11.569Z,26.75
2024-01-18T12:02:11.545Z,26.71
2024-01-18T12:03:11.593Z,26.71
2024-01-18T12:04:11.686Z,26.71
2024-01-18T12:05:11.746Z,26.71
2024-01-18T12:06:11.745Z,26.70
2024-01-18T12:07:11.769Z,26.68
2024-01-18T12:08:11.781Z,26.68
2024-01-18T12:09:11.835Z,26.64
2024-01-18T12:10:11.904Z,26.67
2024-01-18T12:11:11.896Z,26.62
2024-01-18T12:12:11.974Z,26.64
2024-01-18T12:13:12.044Z,26.65
2024-01-18T12:14:12.033Z,26.67
2024-01-18T12:15:12.160Z,26.70
2024-01-18T12:16:12.157Z,26.67
2024-01-18T12:17:12.166Z,26.68
2024-01-18T12:18:12.249Z,26.68
2024-01-18T12:19:12.350Z,26.68
2024-01-18T12:20:12.291Z,26.65
2024-01-18T12:21:12.344Z,26.67
2024-01-18T12:22:12.385Z,26.67
2024-01-18T12:23:12.412Z,26.67
2024-01-18T12:24:12.500Z,26.67
2024-01-18T12:25:12.518Z,26.65
2024-01-18T12:26:12.565Z,26.64
2024-01-18T12:27:13.171Z,26.65
2024-01-18T12:28:12.658Z,26.65
2024-01-18T12:29:12.707Z,26.65
2024-01-18T12:30:12.790Z,26.61
2024-01-18T12:31:12.790Z,26.64
2024-01-18T12:32:12.888Z,26.64
2024-01-18T12:33:13.076Z,26.62
2024-01-18T12:34:13.122Z,26.62
2024-01-18T12:35:12.999Z,26.61
2024-01-18T12:36:13.113Z,26.62
2024-01-18T12:37:13.105Z,26.60
2024-01-18T12:38:13.141Z,26.58
2024-01-18T12:39:13.216Z,26.58
2024-01-18T12:40:13.225Z,26.57
2024-01-18T12:41:13.331Z,26.55
2024-01-18T12:42:13.406Z,26.57
2024-01-18T12:43:13.401Z,26.58
2024-01-18T12:44:13.459Z,26.55
2024-01-18T12:45:13.508Z,26.57
2024-01-18T12:46:13.545Z,26.58
2024-01-18T12:47:13.607Z,26.58
2024-01-18T12:48:13.763Z,26.58
2024-01-18T12:49:13.848Z,26.54
2024-01-18T12:50:13.852Z,26.55
2024-01-18T12:51:13.853Z,26.57
2024-01-18T12:52:13.868Z,26.60
2024-01-18T12:53:13.919Z,26.58